Hubbard, Ohio
Current Conditions -  °F | °C
As of 3:51 AM on Friday 24 Oct 2014 (Local Time) from KYNG Reporting Station
Light Fog Light Fog  
Wind Chill: 39°   Ceiling: Unl
Heat Index: 39°   Visibility: 10mi
Dew Point: 38°   Wind: 0mph
Humidity: 96%   Direction: NA
Pressure: 30.07"   Gusts: NA
Location:  41.16°N, 80.57°W
Report Text: KYNG 240751Z 00000KT 10SM MIFG FEW250 04/03 A3007 RMK AO2 SLP188 T00390033
Loading
Personal Weather Stations






























Interactive Weather Map
Tropical Storm Tracking
New forecast layout! Learn more

10-Day Weather Forecast

Advertisements
Track Severe Weather on mobile